createdAt,value
2022-10-24T00:00:32.747Z,100987.94
2022-10-24T00:03:35.577Z,100984.41
2022-10-24T00:06:41.404Z,100984.41
2022-10-24T00:09:44.288Z,100977.31
2022-10-24T00:12:47.551Z,100974.66
2022-10-24T00:15:51.450Z,100975.53
2022-10-24T00:18:54.500Z,100983.59
2022-10-24T00:21:58.638Z,100979.13
2022-10-24T00:25:01.624Z,100974.66
2022-10-24T00:28:04.595Z,100964.09
2022-10-24T00:31:08.341Z,100961.44
2022-10-24T00:34:11.197Z,100954.31
2022-10-24T00:37:15.725Z,100922.34
2022-10-24T00:40:20.687Z,100914.38
2022-10-24T00:43:25.130Z,100885.06
2022-10-24T00:46:27.921Z,100895.72
2022-10-24T00:49:36.088Z,100886.00
2022-10-24T00:52:44.136Z,100895.78
2022-10-24T00:55:50.253Z,100916.25
2022-10-24T00:58:54.677Z,100925.06
2022-10-24T01:01:57.997Z,100922.41
2022-10-24T01:05:01.359Z,100917.16
2022-10-24T01:08:13.887Z,100923.34
2022-10-24T01:11:30.218Z,100926.91
2022-10-24T01:14:44.829Z,100942.00
2022-10-24T01:17:58.004Z,100959.69
2022-10-24T01:21:10.270Z,100960.56
2022-10-24T01:24:49.467Z,100980.16
2022-10-24T01:27:59.037Z,100974.81
2022-10-24T01:31:09.416Z,100964.16
2022-10-24T01:34:21.679Z,100963.31
2022-10-24T01:37:30.769Z,100971.38
2022-10-24T01:40:40.019Z,100967.75
2022-10-24T01:43:49.164Z,100971.38
2022-10-24T01:46:56.822Z,100958.97
2022-10-24T01:50:03.095Z,100950.06
2022-10-24T01:53:06.465Z,100937.66
2022-10-24T01:56:09.788Z,100931.44
2022-10-24T01:59:44.417Z,100923.44
2022-10-24T02:02:55.234Z,100919.03
2022-10-24T02:06:04.411Z,100939.41
2022-10-24T02:09:12.071Z,100943.00
2022-10-24T02:12:18.382Z,100933.22
2022-10-24T02:15:25.710Z,100926.16
2022-10-24T02:18:31.867Z,100918.16
2022-10-24T02:21:39.265Z,100917.31
2022-10-24T02:24:47.366Z,100910.19
2022-10-24T02:27:56.413Z,100920.81
2022-10-24T02:31:05.581Z,100901.34
2022-10-24T02:37:17.252Z,100907.59
2022-10-24T02:40:22.976Z,100912.00
2022-10-24T02:43:27.201Z,100912.91
2022-10-24T02:46:31.573Z,100914.66
2022-10-24T02:49:35.836Z,100908.47
2022-10-24T02:52:39.962Z,100908.47
2022-10-24T02:55:43.136Z,100896.94
2022-10-24T02:58:46.196Z,100899.59
2022-10-24T03:01:49.121Z,100910.25
2022-10-24T03:04:53.349Z,100908.50
2022-10-24T03:07:56.157Z,100907.63
2022-10-24T03:11:00.029Z,100904.97
2022-10-24T03:14:03.102Z,100904.09
2022-10-24T03:17:05.943Z,100893.47
2022-10-24T03:20:11.209Z,100892.53
2022-10-24T03:23:14.091Z,100890.72
2022-10-24T03:26:17.325Z,100891.63
2022-10-24T03:29:21.260Z,100903.19
2022-10-24T03:32:24.055Z,100897.88
2022-10-24T03:35:28.214Z,100894.31
2022-10-24T03:38:30.994Z,100882.81
2022-10-24T03:41:33.792Z,100881.94
2022-10-24T03:44:36.689Z,100886.38
2022-10-24T03:47:39.513Z,100889.06
2022-10-24T03:50:43.695Z,100889.06
2022-10-24T03:53:46.505Z,100883.72
2022-10-24T03:56:49.959Z,100880.22
2022-10-24T03:59:52.811Z,100878.41
2022-10-24T04:02:55.765Z,100878.47
2022-10-24T04:06:00.011Z,100879.34
2022-10-24T04:09:02.829Z,100870.41
2022-10-24T04:12:06.234Z,100868.72
2022-10-24T04:15:09.561Z,100866.97
2022-10-24T04:18:12.453Z,100870.50
2022-10-24T04:21:20.807Z,100868.72
2022-10-24T04:24:24.865Z,100872.28
2022-10-24T04:27:27.771Z,100872.28
2022-10-24T04:30:30.650Z,100870.50
2022-10-24T04:33:33.487Z,100872.28
2022-10-24T04:36:37.795Z,100873.16
2022-10-24T04:39:40.655Z,100874.03
2022-10-24T04:42:43.814Z,100868.78
2022-10-24T04:45:47.413Z,100870.56
2022-10-24T04:48:50.209Z,100865.25
2022-10-24T04:51:54.470Z,100864.31
2022-10-24T04:54:57.271Z,100866.97
2022-10-24T04:58:00.231Z,100871.44
2022-10-24T05:01:03.283Z,100866.13
2022-10-24T05:04:06.052Z,100872.28
2022-10-24T05:07:10.194Z,100873.25
2022-10-24T05:10:13.740Z,100886.56
2022-10-24T05:13:16.576Z,100890.13
2022-10-24T05:16:19.347Z,100893.66
2022-10-24T05:19:22.116Z,100883.09
2022-10-24T05:22:26.224Z,100881.31
2022-10-24T05:25:29.012Z,100884.81
2022-10-24T05:28:31.888Z,100887.47
2022-10-24T05:31:35.081Z,100896.34
2022-10-24T05:34:37.992Z,100907.84
2022-10-24T05:37:44.018Z,100894.63
2022-10-24T05:40:49.246Z,100898.13
2022-10-24T05:43:52.012Z,100908.78
2022-10-24T05:46:55.123Z,100905.28
2022-10-24T05:49:57.940Z,100906.09
2022-10-24T05:53:02.371Z,100907.94
2022-10-24T05:56:06.093Z,100899.06
2022-10-24T05:59:08.909Z,100905.28
2022-10-24T06:02:18.468Z,100917.72
2022-10-24T06:05:21.901Z,100913.25
2022-10-24T06:08:26.125Z,100910.59
2022-10-24T06:11:28.951Z,100900.78
2022-10-24T06:14:31.704Z,100894.63
2022-10-24T06:17:34.766Z,100896.34
2022-10-24T06:20:38.392Z,100903.44
2022-10-24T06:23:42.643Z,100914.97
2022-10-24T06:26:45.512Z,100908.78
2022-10-24T06:29:48.358Z,100908.78
2022-10-24T06:32:51.480Z,100895.47
2022-10-24T06:35:54.567Z,100893.75
2022-10-24T06:38:58.761Z,100891.97
2022-10-24T06:42:02.524Z,100880.44
2022-10-24T06:45:07.135Z,100884.81
2022-10-24T06:48:10.592Z,100872.28
2022-10-24T06:51:15.893Z,100881.06
2022-10-24T06:54:20.360Z,100882.81
2022-10-24T06:57:23.467Z,100896.94
2022-10-24T07:03:34.717Z,100896.81
2022-10-24T07:06:37.772Z,100898.53
2022-10-24T07:09:42.167Z,100893.19
2022-10-24T07:12:45.282Z,100897.59
2022-10-24T07:15:48.468Z,100894.94
2022-10-24T07:18:51.731Z,100894.94
2022-10-24T07:21:54.544Z,100893.13
2022-10-24T07:24:58.736Z,100906.38
2022-10-24T07:28:01.570Z,100903.72
2022-10-24T07:31:05.637Z,100909.88
2022-10-24T07:34:10.484Z,100910.75
2022-10-24T07:37:14.147Z,100924.84
2022-10-24T07:40:18.945Z,100935.50
2022-10-24T07:43:21.773Z,100938.97
2022-10-24T07:46:25.779Z,100938.13
2022-10-24T07:49:31.472Z,100935.47
2022-10-24T07:52:36.547Z,100933.63
2022-10-24T07:55:41.580Z,100936.31
2022-10-24T07:58:45.625Z,100932.72
2022-10-24T08:01:48.448Z,100919.41
2022-10-24T08:04:51.400Z,100919.41
2022-10-24T08:08:00.337Z,100915.00
2022-10-24T08:11:11.343Z,100921.13
2022-10-24T08:14:14.267Z,100916.75
2022-10-24T08:17:19.789Z,100914.06
2022-10-24T08:20:24.152Z,100903.56
2022-10-24T08:23:27.299Z,100909.84
2022-10-24T08:26:31.457Z,100916.25
2022-10-24T08:29:34.395Z,100915.50
2022-10-24T08:32:38.212Z,100915.50
2022-10-24T08:35:41.091Z,100912.78
2022-10-24T08:38:43.987Z,100910.03
2022-10-24T08:41:51.342Z,100906.44
2022-10-24T08:44:55.225Z,100903.78
2022-10-24T08:48:06.456Z,100903.72
2022-10-24T08:51:18.225Z,100908.03
2022-10-24T08:54:24.398Z,100897.38
2022-10-24T09:00:42.428Z,100893.69
2022-10-24T09:04:02.601Z,100892.78
2022-10-24T09:07:06.048Z,100902.47
2022-10-24T09:10:17.734Z,100890.91
2022-10-24T09:13:23.821Z,100887.28
2022-10-24T09:16:27.669Z,100882.91
2022-10-24T09:19:32.138Z,100880.16
2022-10-24T09:22:39.452Z,100880.16
2022-10-24T09:25:48.578Z,100882.75
2022-10-24T09:28:55.095Z,100888.06
2022-10-24T09:31:58.121Z,100881.81
2022-10-24T09:35:02.482Z,100891.56
2022-10-24T09:38:27.901Z,100879.09
2022-10-24T09:41:33.234Z,100880.91
2022-10-24T09:44:39.324Z,100880.81
2022-10-24T09:47:42.422Z,100879.03
2022-10-24T09:50:46.823Z,100887.81
2022-10-24T09:54:02.572Z,100877.16
2022-10-24T09:57:08.727Z,100877.16
2022-10-24T10:00:24.867Z,100876.28
2022-10-24T10:03:28.406Z,100893.97
2022-10-24T10:06:33.512Z,100882.47
2022-10-24T10:09:41.570Z,100886.84
2022-10-24T10:12:47.996Z,100880.66
2022-10-24T10:15:54.690Z,100864.69
2022-10-24T10:19:03.557Z,100868.22
2022-10-24T10:22:08.300Z,100873.53
2022-10-24T10:25:30.931Z,100872.63
2022-10-24T10:28:37.487Z,100862.78
2022-10-24T10:31:44.757Z,100863.66
2022-10-24T10:34:53.726Z,100870.75
2022-10-24T10:38:04.088Z,100874.28
2022-10-24T10:41:15.526Z,100858.34
2022-10-24T10:44:32.438Z,100864.47
2022-10-24T10:47:49.920Z,100874.28
2022-10-24T10:51:00.540Z,100867.13
2022-10-24T10:54:23.668Z,100863.66
2022-10-24T10:57:33.677Z,100874.31
2022-10-24T11:00:45.021Z,100872.63
2022-10-24T11:03:56.109Z,100879.66
2022-10-24T11:07:07.648Z,100869.00
2022-10-24T11:10:16.190Z,100859.28
2022-10-24T11:13:26.283Z,100862.78
2022-10-24T11:16:30.556Z,100864.53
2022-10-24T11:19:44.936Z,100863.66
2022-10-24T11:22:53.111Z,100858.44
2022-10-24T11:26:00.245Z,100863.66
2022-10-24T11:29:10.400Z,100867.28
2022-10-24T11:32:22.997Z,100858.34
2022-10-24T11:35:30.845Z,100856.63
2022-10-24T11:38:36.744Z,100857.47
2022-10-24T11:41:49.311Z,100848.56
2022-10-24T11:44:57.081Z,100840.47
2022-10-24T11:48:11.101Z,100835.16
2022-10-24T11:51:21.484Z,100833.28
2022-10-24T11:54:29.609Z,100829.69
2022-10-24T11:57:33.365Z,100826.94
2022-10-24T12:00:59.248Z,100827.81
2022-10-24T12:04:25.675Z,100847.25
2022-10-24T12:08:12.906Z,100849.03
2022-10-24T12:11:31.797Z,100843.72
2022-10-24T12:14:51.895Z,100841.91
2022-10-24T12:18:06.374Z,100826.81
2022-10-24T12:21:12.058Z,100827.66
2022-10-24T12:24:25.717Z,100826.72
2022-10-24T12:27:35.585Z,100829.38
2022-10-24T12:30:39.041Z,100812.53
2022-10-24T12:33:43.160Z,100818.72
2022-10-24T12:37:11.877Z,100819.59
2022-10-24T12:40:55.338Z,100813.41
2022-10-24T12:44:41.074Z,100801.09
2022-10-24T12:48:10.662Z,100799.44
2022-10-24T12:51:31.481Z,100805.72
2022-10-24T12:54:42.358Z,100803.06
2022-10-24T12:57:47.212Z,100794.28
2022-10-24T13:00:55.893Z,100795.16
2022-10-24T13:04:46.082Z,100798.81
2022-10-24T13:08:05.225Z,100798.81
2022-10-24T13:11:26.476Z,100800.63
2022-10-24T13:14:53.072Z,100801.47
2022-10-24T13:18:09.414Z,100802.41
2022-10-24T13:21:27.508Z,100800.63
2022-10-24T13:24:35.109Z,100797.94
2022-10-24T13:27:38.430Z,100802.41
2022-10-24T13:30:43.739Z,100800.53
2022-10-24T13:33:49.665Z,100796.94
2022-10-24T13:37:01.014Z,100806.63
2022-10-24T13:40:10.520Z,100803.06
2022-10-24T13:43:19.443Z,100809.31
2022-10-24T13:46:29.151Z,100804.84
2022-10-24T13:49:35.271Z,100802.19
2022-10-24T13:52:49.302Z,100808.38
2022-10-24T13:55:52.675Z,100817.16
2022-10-24T13:58:55.597Z,100816.28
2022-10-24T14:02:01.265Z,100807.38
2022-10-24T14:05:05.420Z,100814.41
2022-10-24T14:08:10.595Z,100809.09
2022-10-24T14:11:19.827Z,100814.31
2022-10-24T14:14:30.113Z,100827.59
2022-10-24T14:17:35.775Z,100831.13
2022-10-24T14:20:39.089Z,100826.63
2022-10-24T14:23:55.606Z,100832.84
2022-10-24T14:26:58.811Z,100832.84
2022-10-24T14:30:04.334Z,100832.84
2022-10-24T14:33:18.585Z,100823.91
2022-10-24T14:36:24.686Z,100831.91
2022-10-24T14:39:29.152Z,100831.91
2022-10-24T14:42:33.006Z,100836.28
2022-10-24T14:45:35.939Z,100836.28
2022-10-24T14:48:40.352Z,100830.97
2022-10-24T14:51:43.577Z,100839.72
2022-10-24T14:55:01.146Z,100839.72
2022-10-24T14:58:04.277Z,100843.28
2022-10-24T15:01:07.188Z,100834.41
2022-10-24T15:04:32.140Z,100838.81
2022-10-24T15:07:40.668Z,100829.06
2022-10-24T15:10:47.026Z,100835.28
2022-10-24T15:14:05.602Z,100826.41
2022-10-24T15:17:30.006Z,100832.69
2022-10-24T15:20:40.023Z,100835.38
2022-10-24T15:23:48.738Z,100832.69
2022-10-24T15:26:53.262Z,100833.63
2022-10-24T15:29:56.612Z,100825.63
2022-10-24T15:33:01.187Z,100822.97
2022-10-24T15:36:06.183Z,100823.84
2022-10-24T15:39:15.216Z,100830.97
2022-10-24T15:42:22.336Z,100834.56
2022-10-24T15:45:26.171Z,100841.69
2022-10-24T15:48:28.946Z,100839.91
2022-10-24T15:51:31.858Z,100844.38
2022-10-24T15:54:35.783Z,100836.47
2022-10-24T15:57:39.907Z,100844.44
2022-10-24T16:00:43.480Z,100847.13
2022-10-24T16:03:46.386Z,100846.25
2022-10-24T16:06:49.213Z,100842.69
2022-10-24T16:09:52.029Z,100838.25
2022-10-24T16:12:56.243Z,100842.69
2022-10-24T16:15:59.070Z,100852.44
2022-10-24T16:19:01.919Z,100848.03
2022-10-24T16:22:04.784Z,100851.56
2022-10-24T16:25:07.902Z,100857.81
2022-10-24T16:28:12.414Z,100856.03
2022-10-24T16:31:19.634Z,100865.81
2022-10-24T16:34:23.509Z,100857.91
2022-10-24T16:37:26.287Z,100860.56
2022-10-24T16:40:29.909Z,100862.38
2022-10-24T16:43:37.571Z,100863.22
2022-10-24T16:46:44.231Z,100872.16
2022-10-24T16:49:47.033Z,100872.16
2022-10-24T16:52:49.904Z,100878.34
2022-10-24T16:55:55.421Z,100879.22
2022-10-24T16:58:59.612Z,100886.25
2022-10-24T17:02:03.553Z,100886.25
2022-10-24T17:05:06.602Z,100886.25
2022-10-24T17:08:09.381Z,100887.22
2022-10-24T17:11:32.597Z,100887.22
2022-10-24T17:14:37.486Z,100890.75
2022-10-24T17:17:40.880Z,100891.66
2022-10-24T17:20:45.059Z,100882.81
2022-10-24T17:23:48.149Z,100881.97
2022-10-24T17:26:52.068Z,100889.00
2022-10-24T17:29:56.659Z,100893.47
2022-10-24T17:32:59.871Z,100890.78
2022-10-24T17:36:03.274Z,100892.53
2022-10-24T17:39:10.508Z,100891.66
2022-10-24T17:42:13.711Z,100895.19
2022-10-24T17:45:19.770Z,100890.75
2022-10-24T17:48:23.135Z,100892.53
2022-10-24T17:51:28.016Z,100885.41
2022-10-24T17:54:30.900Z,100894.25
2022-10-24T17:57:33.770Z,100895.19
2022-10-24T18:00:38.525Z,100897.88
2022-10-24T18:03:41.298Z,100896.91
2022-10-24T18:06:44.094Z,100905.84
2022-10-24T18:09:46.925Z,100903.19
2022-10-24T18:12:49.834Z,100905.84
2022-10-24T18:15:54.083Z,100912.88
2022-10-24T18:18:57.587Z,100919.97
2022-10-24T18:22:00.403Z,100913.72
2022-10-24T18:25:03.555Z,100923.41
2022-10-24T18:28:06.499Z,100923.41
2022-10-24T18:31:12.830Z,100922.53
2022-10-24T18:34:15.703Z,100928.75
2022-10-24T18:37:20.001Z,100932.38
2022-10-24T18:40:23.480Z,100926.94
2022-10-24T18:43:26.501Z,100928.75
2022-10-24T18:46:31.703Z,100939.41
2022-10-24T18:49:36.010Z,100934.94
2022-10-24T18:52:45.155Z,100939.41
2022-10-24T18:55:48.499Z,100940.34
2022-10-24T18:58:57.152Z,100946.53
2022-10-24T19:02:19.078Z,100937.53
2022-10-24T19:05:24.890Z,100944.66
2022-10-24T19:08:28.171Z,100943.72
2022-10-24T19:11:31.131Z,100938.41
2022-10-24T19:14:34.321Z,100937.53
2022-10-24T19:17:38.749Z,100946.38
2022-10-24T19:20:42.380Z,100949.06
2022-10-24T19:23:45.180Z,100939.28
2022-10-24T19:26:48.487Z,100937.53
2022-10-24T19:29:51.304Z,100943.72
2022-10-24T19:32:56.319Z,100938.41
2022-10-24T19:36:03.429Z,100933.94
2022-10-24T19:39:06.607Z,100940.97
2022-10-24T19:42:09.450Z,100939.28
2022-10-24T19:45:12.308Z,100944.50
2022-10-24T19:48:16.645Z,100953.38
2022-10-24T19:51:20.904Z,100947.97
2022-10-24T19:54:23.740Z,100944.44
2022-10-24T19:57:26.584Z,100946.19
2022-10-24T20:00:31.216Z,100939.97
2022-10-24T20:03:36.545Z,100946.19
2022-10-24T20:06:39.538Z,100950.63
2022-10-24T20:09:42.325Z,100954.16
2022-10-24T20:12:45.592Z,100952.44
2022-10-24T20:15:53.702Z,100952.44
2022-10-24T20:18:57.779Z,100955.09
2022-10-24T20:22:02.428Z,100965.75
2022-10-24T20:25:06.068Z,100963.09
2022-10-24T20:28:08.856Z,100965.75
2022-10-24T20:31:20.709Z,100965.66
2022-10-24T20:34:24.890Z,100961.22
2022-10-24T20:37:27.730Z,100965.63
2022-10-24T20:40:30.535Z,100972.75
2022-10-24T20:43:33.253Z,100975.41
2022-10-24T20:46:36.063Z,100979.00
2022-10-24T20:49:40.264Z,100975.41
2022-10-24T20:52:43.278Z,100980.72
2022-10-24T20:55:46.127Z,100977.19
2022-10-24T20:58:50.669Z,100977.19
2022-10-24T21:01:53.500Z,100989.59
2022-10-24T21:04:57.829Z,100991.38
2022-10-24T21:08:00.688Z,100994.94
2022-10-24T21:11:06.917Z,100999.31
2022-10-24T21:14:13.317Z,101001.03
2022-10-24T21:17:16.434Z,101006.38
2022-10-24T21:20:20.723Z,101008.09
2022-10-24T21:23:23.612Z,101008.97
2022-10-24T21:26:26.606Z,101007.25
2022-10-24T21:29:33.979Z,101010.75
2022-10-24T21:32:37.216Z,101011.72
2022-10-24T21:35:42.716Z,101015.28
2022-10-24T21:38:47.865Z,101015.44
2022-10-24T21:41:50.719Z,101019.03
2022-10-24T21:44:53.575Z,101020.91
2022-10-24T21:47:56.459Z,101018.31
2022-10-24T21:51:06.208Z,101016.59
2022-10-24T21:54:17.146Z,101014.88
2022-10-24T21:57:19.989Z,101016.66
2022-10-24T22:00:22.791Z,101019.31
2022-10-24T22:03:26.298Z,101017.63
2022-10-24T22:06:32.640Z,101024.66
2022-10-24T22:09:35.423Z,101022.00
2022-10-24T22:12:38.247Z,101027.31
2022-10-24T22:15:41.137Z,101025.59
2022-10-24T22:18:44.407Z,101031.78
2022-10-24T22:21:50.981Z,101038.94
2022-10-24T22:24:53.754Z,101042.50
2022-10-24T22:27:56.571Z,101051.38
2022-10-24T22:31:00.048Z,101048.72
2022-10-24T22:34:04.018Z,101045.19
2022-10-24T22:37:16.942Z,101054.03
2022-10-24T22:40:24.845Z,101051.38
2022-10-24T22:43:28.213Z,101052.28
2022-10-24T22:46:49.773Z,101064.75
2022-10-24T22:50:03.811Z,101058.50
2022-10-24T22:53:12.239Z,101052.28
2022-10-24T22:56:19.307Z,101056.75
2022-10-24T22:59:22.679Z,101055.84
2022-10-24T23:02:31.071Z,101056.75
2022-10-24T23:05:39.664Z,101063.81
2022-10-24T23:08:45.473Z,101070.94
2022-10-24T23:11:49.020Z,101065.63
2022-10-24T23:14:53.296Z,101063.91
2022-10-24T23:17:56.485Z,101068.38
2022-10-24T23:21:12.312Z,101071.91
2022-10-24T23:24:18.058Z,101076.34
2022-10-24T23:27:34.211Z,101076.34
2022-10-24T23:30:37.639Z,101077.28
2022-10-24T23:33:40.919Z,101074.59
2022-10-24T23:36:46.463Z,101076.34
2022-10-24T23:39:51.325Z,101078.06
2022-10-24T23:42:55.108Z,101076.34
2022-10-24T23:46:01.671Z,101073.69
2022-10-24T23:49:22.000Z,101070.16
2022-10-24T23:52:29.715Z,101068.38
2022-10-24T23:55:34.521Z,101076.34
2022-10-24T23:58:37.287Z,101074.59
